Terminal Aerodrome Forecast
Issued by NWS

Home | Current Version | Previous Version | Text Only | Print | Product List | Glossary On
Versions: 1 2 3 4 5 6 7 8 9 10 11 12
476
FTUS45 KRIW 222322
TAFLND
TAF
KLND 222322Z 2300/2324 24010KT P6SM -RA SCT018 OVC035
     FM230200 30009KT P6SM VCSH SCT030 BKN070
     FM230400 25007KT P6SM SCT080
     FM231300 VRB05KT P6SM FEW080
     FM231900 24008KT P6SM SCT070=

USA.gov is the U.S. government's official web portal to all federal, state and local government web resources and services.